sensor_id;sensor_type;location;lat;lon;timestamp;temperature;humidity
57709;SHT35;42558;52.388;13.390;2023-04-06T00:00:40;1.96;78.18
57709;SHT35;42558;52.388;13.390;2023-04-06T00:03:10;1.92;78.45
57709;SHT35;42558;52.388;13.390;2023-04-06T00:05:40;1.89;78.58
57709;SHT35;42558;52.388;13.390;2023-04-06T00:08:11;1.84;78.68
57709;SHT35;42558;52.388;13.390;2023-04-06T00:10:40;1.82;78.87
57709;SHT35;42558;52.388;13.390;2023-04-06T00:13:09;1.78;78.96
57709;SHT35;42558;52.388;13.390;2023-04-06T00:15:37;1.72;79.09
57709;SHT35;42558;52.388;13.390;2023-04-06T00:18:06;1.67;79.23
57709;SHT35;42558;52.388;13.390;2023-04-06T00:20:34;1.64;79.29
57709;SHT35;42558;52.388;13.390;2023-04-06T00:23:03;1.59;79.27
57709;SHT35;42558;52.388;13.390;2023-04-06T00:25:31;1.52;79.44
57709;SHT35;42558;52.388;13.390;2023-04-06T00:27:59;1.47;79.60
57709;SHT35;42558;52.388;13.390;2023-04-06T00:30:28;1.42;79.61
57709;SHT35;42558;52.388;13.390;2023-04-06T00:32:56;1.37;79.71
57709;SHT35;42558;52.388;13.390;2023-04-06T00:35:25;1.33;79.80
57709;SHT35;42558;52.388;13.390;2023-04-06T00:37:53;1.27;79.80
57709;SHT35;42558;52.388;13.390;2023-04-06T00:40:21;1.22;79.93
57709;SHT35;42558;52.388;13.390;2023-04-06T00:42:50;1.17;80.12
57709;SHT35;42558;52.388;13.390;2023-04-06T00:45:18;1.13;80.27
57709;SHT35;42558;52.388;13.390;2023-04-06T00:47:47;1.10;80.40
57709;SHT35;42558;52.388;13.390;2023-04-06T00:50:14;1.07;80.57
57709;SHT35;42558;52.388;13.390;2023-04-06T00:52:43;1.05;80.68
57709;SHT35;42558;52.388;13.390;2023-04-06T00:55:11;1.00;80.77
57709;SHT35;42558;52.388;13.390;2023-04-06T00:57:40;0.97;80.92
57709;SHT35;42558;52.388;13.390;2023-04-06T01:00:08;0.95;81.14
57709;SHT35;42558;52.388;13.390;2023-04-06T01:02:36;0.94;81.28
57709;SHT35;42558;52.388;13.390;2023-04-06T01:05:05;0.92;81.32
57709;SHT35;42558;52.388;13.390;2023-04-06T01:07:33;0.88;81.34
57709;SHT35;42558;52.388;13.390;2023-04-06T01:10:02;0.85;81.51
57709;SHT35;42558;52.388;13.390;2023-04-06T01:12:34;0.85;81.70
57709;SHT35;42558;52.388;13.390;2023-04-06T01:15:04;0.85;81.86
57709;SHT35;42558;52.388;13.390;2023-04-06T01:17:36;0.87;81.96
57709;SHT35;42558;52.388;13.390;2023-04-06T01:20:06;0.87;81.93
57709;SHT35;42558;52.388;13.390;2023-04-06T01:22:37;0.86;81.85
57709;SHT35;42558;52.388;13.390;2023-04-06T01:25:05;0.83;81.68
57709;SHT35;42558;52.388;13.390;2023-04-06T01:27:33;0.80;81.66
57709;SHT35;42558;52.388;13.390;2023-04-06T01:30:02;0.76;81.64
57709;SHT35;42558;52.388;13.390;2023-04-06T01:32:33;0.74;81.79
57709;SHT35;42558;52.388;13.390;2023-04-06T01:35:02;0.72;81.79
57709;SHT35;42558;52.388;13.390;2023-04-06T01:37:30;0.70;81.78
57709;SHT35;42558;52.388;13.390;2023-04-06T01:40:04;0.65;81.80
57709;SHT35;42558;52.388;13.390;2023-04-06T01:42:35;0.62;81.80
57709;SHT35;42558;52.388;13.390;2023-04-06T01:45:06;0.60;81.84
57709;SHT35;42558;52.388;13.390;2023-04-06T01:47:36;0.57;82.02
57709;SHT35;42558;52.388;13.390;2023-04-06T01:50:06;0.52;82.00
57709;SHT35;42558;52.388;13.390;2023-04-06T01:52:37;0.48;82.08
57709;SHT35;42558;52.388;13.390;2023-04-06T01:55:07;0.42;82.11
57709;SHT35;42558;52.388;13.390;2023-04-06T01:57:37;0.39;82.29
57709;SHT35;42558;52.388;13.390;2023-04-06T02:00:09;0.36;82.40
57709;SHT35;42558;52.388;13.390;2023-04-06T02:02:40;0.33;82.46
57709;SHT35;42558;52.388;13.390;2023-04-06T02:05:13;0.29;82.51
57709;SHT35;42558;52.388;13.390;2023-04-06T02:07:43;0.28;82.62
57709;SHT35;42558;52.388;13.390;2023-04-06T02:10:14;0.22;82.61
57709;SHT35;42558;52.388;13.390;2023-04-06T02:12:44;0.19;82.70
57709;SHT35;42558;52.388;13.390;2023-04-06T02:15:14;0.13;82.77
57709;SHT35;42558;52.388;13.390;2023-04-06T02:17:45;0.12;82.97
57709;SHT35;42558;52.388;13.390;2023-04-06T02:20:15;0.07;83.02
57709;SHT35;42558;52.388;13.390;2023-04-06T02:22:48;0.03;83.15
57709;SHT35;42558;52.388;13.390;2023-04-06T02:25:18;-0.01;83.19
57709;SHT35;42558;52.388;13.390;2023-04-06T02:27:51;-0.04;83.31
57709;SHT35;42558;52.388;13.390;2023-04-06T02:30:19;-0.06;83.46
57709;SHT35;42558;52.388;13.390;2023-04-06T02:32:49;-0.06;84.14
57709;SHT35;42558;52.388;13.390;2023-04-06T02:35:19;-0.10;84.07
57709;SHT35;42558;52.388;13.390;2023-04-06T02:37:49;-0.11;84.55
57709;SHT35;42558;52.388;13.390;2023-04-06T02:40:19;-0.16;84.26
57709;SHT35;42558;52.388;13.390;2023-04-06T02:42:49;-0.24;84.10
57709;SHT35;42558;52.388;13.390;2023-04-06T02:45:19;-0.27;84.19
57709;SHT35;42558;52.388;13.390;2023-04-06T02:47:49;-0.29;84.29
57709;SHT35;42558;52.388;13.390;2023-04-06T02:50:19;-0.34;84.25
57709;SHT35;42558;52.388;13.390;2023-04-06T02:52:51;-0.38;84.30
57709;SHT35;42558;52.388;13.390;2023-04-06T02:55:22;-0.41;84.38
57709;SHT35;42558;52.388;13.390;2023-04-06T02:57:52;-0.46;84.42
57709;SHT35;42558;52.388;13.390;2023-04-06T03:00:22;-0.50;84.40
57709;SHT35;42558;52.388;13.390;2023-04-06T03:02:52;-0.52;84.50
57709;SHT35;42558;52.388;13.390;2023-04-06T03:05:22;-0.57;84.51
57709;SHT35;42558;52.388;13.390;2023-04-06T03:07:52;-0.60;84.62
57709;SHT35;42558;52.388;13.390;2023-04-06T03:10:22;-0.63;84.63
57709;SHT35;42558;52.388;13.390;2023-04-06T03:12:52;-0.67;84.70
57709;SHT35;42558;52.388;13.390;2023-04-06T03:15:21;-0.70;84.89
57709;SHT35;42558;52.388;13.390;2023-04-06T03:17:51;-0.74;84.88
57709;SHT35;42558;52.388;13.390;2023-04-06T03:20:21;-0.78;84.83
57709;SHT35;42558;52.388;13.390;2023-04-06T03:22:51;-0.81;84.89
57709;SHT35;42558;52.388;13.390;2023-04-06T03:25:21;-0.83;84.98
57709;SHT35;42558;52.388;13.390;2023-04-06T03:27:51;-0.83;85.03
57709;SHT35;42558;52.388;13.390;2023-04-06T03:30:21;-0.84;85.14
57709;SHT35;42558;52.388;13.390;2023-04-06T03:32:51;-0.85;85.14
57709;SHT35;42558;52.388;13.390;2023-04-06T03:35:21;-0.88;85.14
57709;SHT35;42558;52.388;13.390;2023-04-06T03:37:51;-0.89;85.18
57709;SHT35;42558;52.388;13.390;2023-04-06T03:40:21;-0.92;85.20
57709;SHT35;42558;52.388;13.390;2023-04-06T03:42:49;-0.94;85.17
57709;SHT35;42558;52.388;13.390;2023-04-06T03:45:18;-0.98;85.19
57709;SHT35;42558;52.388;13.390;2023-04-06T03:47:46;-1.02;85.11
57709;SHT35;42558;52.388;13.390;2023-04-06T03:50:14;-1.05;85.19
57709;SHT35;42558;52.388;13.390;2023-04-06T03:52:43;-1.09;85.23
57709;SHT35;42558;52.388;13.390;2023-04-06T03:55:11;-1.09;85.33
57709;SHT35;42558;52.388;13.390;2023-04-06T03:57:40;-1.11;85.40
57709;SHT35;42558;52.388;13.390;2023-04-06T04:00:08;-1.11;85.53
57709;SHT35;42558;52.388;13.390;2023-04-06T04:02:37;-1.11;85.54
57709;SHT35;42558;52.388;13.390;2023-04-06T04:05:05;-1.16;85.43
57709;SHT35;42558;52.388;13.390;2023-04-06T04:07:34;-1.17;85.52
57709;SHT35;42558;52.388;13.390;2023-04-06T04:10:03;-1.17;85.60
57709;SHT35;42558;52.388;13.390;2023-04-06T04:12:31;-1.19;85.69
57709;SHT35;42558;52.388;13.390;2023-04-06T04:14:59;-1.22;85.72
57709;SHT35;42558;52.388;13.390;2023-04-06T04:17:28;-1.23;85.80
57709;SHT35;42558;52.388;13.390;2023-04-06T04:19:56;-1.26;85.87
57709;SHT35;42558;52.388;13.390;2023-04-06T04:22:25;-1.26;85.97
57709;SHT35;42558;52.388;13.390;2023-04-06T04:24:56;-1.26;86.09
57709;SHT35;42558;52.388;13.390;2023-04-06T04:27:25;-1.24;86.29
57709;SHT35;42558;52.388;13.390;2023-04-06T04:29:53;-1.23;86.35
57709;SHT35;42558;52.388;13.390;2023-04-06T04:32:21;-1.24;86.32
57709;SHT35;42558;52.388;13.390;2023-04-06T04:34:50;-1.27;86.26
57709;SHT35;42558;52.388;13.390;2023-04-06T04:37:18;-1.31;86.21
57709;SHT35;42558;52.388;13.390;2023-04-06T04:39:47;-1.31;86.22
57709;SHT35;42558;52.388;13.390;2023-04-06T04:42:15;-1.33;86.24
57709;SHT35;42558;52.388;13.390;2023-04-06T04:44:44;-1.34;86.27
57709;SHT35;42558;52.388;13.390;2023-04-06T04:47:12;-1.36;86.21
57709;SHT35;42558;52.388;13.390;2023-04-06T04:49:41;-1.36;86.26
57709;SHT35;42558;52.388;13.390;2023-04-06T04:52:10;-1.33;86.35
57709;SHT35;42558;52.388;13.390;2023-04-06T04:54:38;-1.32;86.41
57709;SHT35;42558;52.388;13.390;2023-04-06T04:57:10;-1.32;86.40
57709;SHT35;42558;52.388;13.390;2023-04-06T04:59:40;-1.32;86.40
57709;SHT35;42558;52.388;13.390;2023-04-06T05:02:10;-1.30;86.43
57709;SHT35;42558;52.388;13.390;2023-04-06T05:04:40;-1.29;86.40
57709;SHT35;42558;52.388;13.390;2023-04-06T05:07:10;-1.25;86.41
57709;SHT35;42558;52.388;13.390;2023-04-06T05:09:40;-1.21;86.47
57709;SHT35;42558;52.388;13.390;2023-04-06T05:12:10;-1.18;86.40
57709;SHT35;42558;52.388;13.390;2023-04-06T05:14:45;-1.14;86.40
57709;SHT35;42558;52.388;13.390;2023-04-06T05:17:15;-1.10;86.31
57709;SHT35;42558;52.388;13.390;2023-04-06T05:19:44;-1.07;86.29
57709;SHT35;42558;52.388;13.390;2023-04-06T05:22:12;-1.03;86.26
57709;SHT35;42558;52.388;13.390;2023-04-06T05:24:44;-0.98;86.28
57709;SHT35;42558;52.388;13.390;2023-04-06T05:27:12;-0.90;86.36
57709;SHT35;42558;52.388;13.390;2023-04-06T05:29:41;-0.83;86.37
57709;SHT35;42558;52.388;13.390;2023-04-06T05:32:09;-0.75;86.37
57709;SHT35;42558;52.388;13.390;2023-04-06T05:34:37;-0.66;86.42
57709;SHT35;42558;52.388;13.390;2023-04-06T05:37:06;-0.55;86.49
57709;SHT35;42558;52.388;13.390;2023-04-06T05:39:34;-0.50;86.38
57709;SHT35;42558;52.388;13.390;2023-04-06T05:42:04;-0.32;86.65
57709;SHT35;42558;52.388;13.390;2023-04-06T05:44:39;-0.17;86.72
57709;SHT35;42558;52.388;13.390;2023-04-06T05:47:10;-0.07;86.49
57709;SHT35;42558;52.388;13.390;2023-04-06T05:49:41;0.04;86.45
57709;SHT35;42558;52.388;13.390;2023-04-06T05:52:11;0.23;86.46
57709;SHT35;42558;52.388;13.390;2023-04-06T05:54:39;0.45;85.60
57709;SHT35;42558;52.388;13.390;2023-04-06T05:57:08;0.62;84.70
57709;SHT35;42558;52.388;13.390;2023-04-06T05:59:36;0.80;83.62
57709;SHT35;42558;52.388;13.390;2023-04-06T06:02:05;0.97;82.77
57709;SHT35;42558;52.388;13.390;2023-04-06T06:04:33;1.20;81.56
57709;SHT35;42558;52.388;13.390;2023-04-06T06:07:02;1.32;80.83
57709;SHT35;42558;52.388;13.390;2023-04-06T06:09:30;1.50;80.73
57709;SHT35;42558;52.388;13.390;2023-04-06T06:11:59;1.64;79.97
57709;SHT35;42558;52.388;13.390;2023-04-06T06:14:30;1.79;79.19
57709;SHT35;42558;52.388;13.390;2023-04-06T06:17:00;1.92;78.84
57709;SHT35;42558;52.388;13.390;2023-04-06T06:19:30;2.08;78.07
57709;SHT35;42558;52.388;13.390;2023-04-06T06:22:00;2.29;77.40
57709;SHT35;42558;52.388;13.390;2023-04-06T06:24:31;2.49;76.53
57709;SHT35;42558;52.388;13.390;2023-04-06T06:27:01;2.64;75.39
57709;SHT35;42558;52.388;13.390;2023-04-06T06:29:31;2.77;74.37
57709;SHT35;42558;52.388;13.390;2023-04-06T06:32:01;2.95;73.87
57709;SHT35;42558;52.388;13.390;2023-04-06T06:34:31;2.99;72.62
57709;SHT35;42558;52.388;13.390;2023-04-06T06:37:01;3.19;72.66
57709;SHT35;42558;52.388;13.390;2023-04-06T06:39:31;3.40;72.02
57709;SHT35;42558;52.388;13.390;2023-04-06T06:42:01;3.67;71.86
57709;SHT35;42558;52.388;13.390;2023-04-06T06:44:31;3.83;70.40
57709;SHT35;42558;52.388;13.390;2023-04-06T06:47:01;4.06;70.36
57709;SHT35;42558;52.388;13.390;2023-04-06T06:49:31;4.16;69.59
57709;SHT35;42558;52.388;13.390;2023-04-06T06:52:01;4.26;69.15
57709;SHT35;42558;52.388;13.390;2023-04-06T06:54:31;4.46;68.21
57709;SHT35;42558;52.388;13.390;2023-04-06T06:57:01;4.58;67.55
57709;SHT35;42558;52.388;13.390;2023-04-06T06:59:31;4.87;67.52
57709;SHT35;42558;52.388;13.390;2023-04-06T07:02:01;5.26;66.18
57709;SHT35;42558;52.388;13.390;2023-04-06T07:04:31;5.56;64.88
57709;SHT35;42558;52.388;13.390;2023-04-06T07:07:01;5.57;64.18
57709;SHT35;42558;52.388;13.390;2023-04-06T07:09:32;5.97;63.94
57709;SHT35;42558;52.388;13.390;2023-04-06T07:12:02;6.09;62.41
57709;SHT35;42558;52.388;13.390;2023-04-06T07:14:33;5.79;63.39
57709;SHT35;42558;52.388;13.390;2023-04-06T07:17:03;5.96;63.95
57709;SHT35;42558;52.388;13.390;2023-04-06T07:19:33;5.87;63.66
57709;SHT35;42558;52.388;13.390;2023-04-06T07:22:03;5.64;64.27
57709;SHT35;42558;52.388;13.390;2023-04-06T07:24:33;6.22;63.99
57709;SHT35;42558;52.388;13.390;2023-04-06T07:27:03;6.63;61.71
57709;SHT35;42558;52.388;13.390;2023-04-06T07:29:34;6.57;61.58
57709;SHT35;42558;52.388;13.390;2023-04-06T07:32:04;7.06;61.17
57709;SHT35;42558;52.388;13.390;2023-04-06T07:34:34;7.44;59.57
57709;SHT35;42558;52.388;13.390;2023-04-06T07:37:04;7.43;60.50
57709;SHT35;42558;52.388;13.390;2023-04-06T07:39:34;7.85;61.52
57709;SHT35;42558;52.388;13.390;2023-04-06T07:42:04;7.71;61.21
57709;SHT35;42558;52.388;13.390;2023-04-06T07:44:39;7.74;59.85
57709;SHT35;42558;52.388;13.390;2023-04-06T07:47:06;7.66;58.79
57709;SHT35;42558;52.388;13.390;2023-04-06T07:49:36;7.32;59.09
57709;SHT35;42558;52.388;13.390;2023-04-06T07:52:06;7.27;59.33
57709;SHT35;42558;52.388;13.390;2023-04-06T07:54:36;7.39;59.46
57709;SHT35;42558;52.388;13.390;2023-04-06T07:57:05;7.46;58.68
57709;SHT35;42558;52.388;13.390;2023-04-06T07:59:35;7.71;58.46
57709;SHT35;42558;52.388;13.390;2023-04-06T08:02:05;7.93;57.16
57709;SHT35;42558;52.388;13.390;2023-04-06T08:04:35;8.16;57.59
57709;SHT35;42558;52.388;13.390;2023-04-06T08:07:05;8.70;56.71
57709;SHT35;42558;52.388;13.390;2023-04-06T08:09:36;8.28;55.61
57709;SHT35;42558;52.388;13.390;2023-04-06T08:12:06;8.13;55.48
57709;SHT35;42558;52.388;13.390;2023-04-06T08:14:40;8.37;55.76
57709;SHT35;42558;52.388;13.390;2023-04-06T08:17:07;9.29;55.21
57709;SHT35;42558;52.388;13.390;2023-04-06T08:19:37;9.15;52.54
57709;SHT35;42558;52.388;13.390;2023-04-06T08:22:07;8.66;54.29
57709;SHT35;42558;52.388;13.390;2023-04-06T08:24:37;8.81;52.28
57709;SHT35;42558;52.388;13.390;2023-04-06T08:27:07;9.54;52.62
57709;SHT35;42558;52.388;13.390;2023-04-06T08:29:36;9.86;49.69
57709;SHT35;42558;52.388;13.390;2023-04-06T08:32:06;9.44;49.45
57709;SHT35;42558;52.388;13.390;2023-04-06T08:34:36;9.63;48.47
57709;SHT35;42558;52.388;13.390;2023-04-06T08:37:06;9.94;47.58
57709;SHT35;42558;52.388;13.390;2023-04-06T08:39:36;9.72;47.18
57709;SHT35;42558;52.388;13.390;2023-04-06T08:42:10;9.44;48.10
57709;SHT35;42558;52.388;13.390;2023-04-06T08:44:49;10.26;46.18
57709;SHT35;42558;52.388;13.390;2023-04-06T08:47:21;9.73;47.16
57709;SHT35;42558;52.388;13.390;2023-04-06T08:49:53;10.24;46.87
57709;SHT35;42558;52.388;13.390;2023-04-06T08:52:24;11.11;46.09
57709;SHT35;42558;52.388;13.390;2023-04-06T08:54:55;10.72;42.64
57709;SHT35;42558;52.388;13.390;2023-04-06T08:57:24;10.54;44.24
57709;SHT35;42558;52.388;13.390;2023-04-06T08:59:55;10.73;44.00
57709;SHT35;42558;52.388;13.390;2023-04-06T09:02:23;10.02;44.96
57709;SHT35;42558;52.388;13.390;2023-04-06T09:04:52;9.97;44.44
57709;SHT35;42558;52.388;13.390;2023-04-06T09:07:24;10.68;44.05
57709;SHT35;42558;52.388;13.390;2023-04-06T09:09:54;11.07;43.10
57709;SHT35;42558;52.388;13.390;2023-04-06T09:12:28;10.90;42.51
57709;SHT35;42558;52.388;13.390;2023-04-06T09:14:59;10.51;42.17
57709;SHT35;42558;52.388;13.390;2023-04-06T09:17:31;11.06;42.09
57709;SHT35;42558;52.388;13.390;2023-04-06T09:20:03;11.31;41.84
57709;SHT35;42558;52.388;13.390;2023-04-06T09:22:40;11.60;42.35
57709;SHT35;42558;52.388;13.390;2023-04-06T09:25:17;11.29;40.43
57709;SHT35;42558;52.388;13.390;2023-04-06T09:27:58;10.75;40.68
57709;SHT35;42558;52.388;13.390;2023-04-06T09:30:31;10.94;41.09
57709;SHT35;42558;52.388;13.390;2023-04-06T09:33:01;10.99;39.85
57709;SHT35;42558;52.388;13.390;2023-04-06T09:35:31;11.46;40.21
57709;SHT35;42558;52.388;13.390;2023-04-06T09:38:09;11.46;38.20
57709;SHT35;42558;52.388;13.390;2023-04-06T09:40:48;10.70;38.60
57709;SHT35;42558;52.388;13.390;2023-04-06T09:43:28;10.55;40.12
57709;SHT35;42558;52.388;13.390;2023-04-06T09:46:00;11.22;38.97
57709;SHT35;42558;52.388;13.390;2023-04-06T09:48:33;11.42;38.08
57709;SHT35;42558;52.388;13.390;2023-04-06T09:51:05;10.98;39.38
57709;SHT35;42558;52.388;13.390;2023-04-06T09:53:41;11.36;38.44
57709;SHT35;42558;52.388;13.390;2023-04-06T09:56:16;11.27;39.11
57709;SHT35;42558;52.388;13.390;2023-04-06T09:58:56;11.91;37.89
57709;SHT35;42558;52.388;13.390;2023-04-06T10:01:32;11.83;37.02
57709;SHT35;42558;52.388;13.390;2023-04-06T10:07:06;11.59;37.33
57709;SHT35;42558;52.388;13.390;2023-04-06T10:09:40;11.74;37.78
57709;SHT35;42558;52.388;13.390;2023-04-06T10:12:15;10.88;37.68
57709;SHT35;42558;52.388;13.390;2023-04-06T10:14:46;10.79;37.47
57709;SHT35;42558;52.388;13.390;2023-04-06T10:17:16;11.08;37.92
57709;SHT35;42558;52.388;13.390;2023-04-06T10:19:53;11.80;39.07
57709;SHT35;42558;52.388;13.390;2023-04-06T10:22:36;12.26;37.34
57709;SHT35;42558;52.388;13.390;2023-04-06T10:25:29;11.47;37.74
57709;SHT35;42558;52.388;13.390;2023-04-06T10:28:05;11.21;38.46
57709;SHT35;42558;52.388;13.390;2023-04-06T10:30:43;10.93;38.57
57709;SHT35;42558;52.388;13.390;2023-04-06T10:33:17;10.92;39.59
57709;SHT35;42558;52.388;13.390;2023-04-06T10:35:49;11.79;38.37
57709;SHT35;42558;52.388;13.390;2023-04-06T10:38:19;10.31;39.91
57709;SHT35;42558;52.388;13.390;2023-04-06T10:40:51;10.58;39.44
57709;SHT35;42558;52.388;13.390;2023-04-06T10:43:21;10.74;40.37
57709;SHT35;42558;52.388;13.390;2023-04-06T10:45:56;11.18;39.19
57709;SHT35;42558;52.388;13.390;2023-04-06T10:48:37;11.00;37.57
57709;SHT35;42558;52.388;13.390;2023-04-06T10:51:16;11.67;36.74
57709;SHT35;42558;52.388;13.390;2023-04-06T10:53:48;11.95;36.77
57709;SHT35;42558;52.388;13.390;2023-04-06T10:56:20;10.78;36.46
57709;SHT35;42558;52.388;13.390;2023-04-06T10:58:54;10.61;38.52
57709;SHT35;42558;52.388;13.390;2023-04-06T11:01:25;10.88;37.65
57709;SHT35;42558;52.388;13.390;2023-04-06T11:03:56;10.60;37.57
57709;SHT35;42558;52.388;13.390;2023-04-06T11:06:30;11.25;38.11
57709;SHT35;42558;52.388;13.390;2023-04-06T11:09:01;12.45;36.96
57709;SHT35;42558;52.388;13.390;2023-04-06T11:11:31;12.96;34.82
57709;SHT35;42558;52.388;13.390;2023-04-06T11:14:01;12.69;34.57
57709;SHT35;42558;52.388;13.390;2023-04-06T11:16:32;11.53;35.06
57709;SHT35;42558;52.388;13.390;2023-04-06T11:19:03;11.15;35.36
57709;SHT35;42558;52.388;13.390;2023-04-06T11:26:57;11.97;34.68
57709;SHT35;42558;52.388;13.390;2023-04-06T11:29:30;11.37;33.84
57709;SHT35;42558;52.388;13.390;2023-04-06T11:32:02;12.00;35.10
57709;SHT35;42558;52.388;13.390;2023-04-06T11:34:36;13.28;33.33
57709;SHT35;42558;52.388;13.390;2023-04-06T11:37:10;13.48;32.62
57709;SHT35;42558;52.388;13.390;2023-04-06T11:39:42;12.60;32.53
57709;SHT35;42558;52.388;13.390;2023-04-06T11:42:26;12.68;33.15
57709;SHT35;42558;52.388;13.390;2023-04-06T11:44:59;12.15;34.33
57709;SHT35;42558;52.388;13.390;2023-04-06T11:47:33;12.37;33.69
57709;SHT35;42558;52.388;13.390;2023-04-06T11:50:13;11.81;34.08
57709;SHT35;42558;52.388;13.390;2023-04-06T11:52:41;12.34;34.22
57709;SHT35;42558;52.388;13.390;2023-04-06T11:55:10;12.16;32.72
57709;SHT35;42558;52.388;13.390;2023-04-06T11:57:46;11.49;34.60
57709;SHT35;42558;52.388;13.390;2023-04-06T12:00:17;12.06;33.31
57709;SHT35;42558;52.388;13.390;2023-04-06T12:02:47;12.14;33.40
57709;SHT35;42558;52.388;13.390;2023-04-06T12:05:16;11.95;33.30
57709;SHT35;42558;52.388;13.390;2023-04-06T12:07:44;11.76;33.37
57709;SHT35;42558;52.388;13.390;2023-04-06T12:10:12;12.69;33.86
57709;SHT35;42558;52.388;13.390;2023-04-06T12:12:41;12.97;32.58
57709;SHT35;42558;52.388;13.390;2023-04-06T12:15:09;12.93;32.72
57709;SHT35;42558;52.388;13.390;2023-04-06T12:17:38;12.67;33.92
57709;SHT35;42558;52.388;13.390;2023-04-06T12:20:06;12.43;33.03
57709;SHT35;42558;52.388;13.390;2023-04-06T12:22:52;12.26;34.03
57709;SHT35;42558;52.388;13.390;2023-04-06T12:25:21;11.80;34.24
57709;SHT35;42558;52.388;13.390;2023-04-06T12:27:49;12.42;34.18
57709;SHT35;42558;52.388;13.390;2023-04-06T12:30:18;12.92;32.65
57709;SHT35;42558;52.388;13.390;2023-04-06T12:32:46;12.11;33.23
57709;SHT35;42558;52.388;13.390;2023-04-06T12:35:17;11.99;33.64
57709;SHT35;42558;52.388;13.390;2023-04-06T12:37:46;11.95;33.74
57709;SHT35;42558;52.388;13.390;2023-04-06T12:40:14;12.06;33.45
57709;SHT35;42558;52.388;13.390;2023-04-06T12:42:43;12.37;33.55
57709;SHT35;42558;52.388;13.390;2023-04-06T12:45:14;12.66;33.28
57709;SHT35;42558;52.388;13.390;2023-04-06T12:47:44;12.47;32.58
57709;SHT35;42558;52.388;13.390;2023-04-06T12:50:14;12.01;33.26
57709;SHT35;42558;52.388;13.390;2023-04-06T12:52:44;11.76;32.91
57709;SHT35;42558;52.388;13.390;2023-04-06T12:55:14;12.06;34.23
57709;SHT35;42558;52.388;13.390;2023-04-06T12:57:44;12.09;33.31
57709;SHT35;42558;52.388;13.390;2023-04-06T13:00:14;11.91;34.00
57709;SHT35;42558;52.388;13.390;2023-04-06T13:02:45;12.40;33.63
57709;SHT35;42558;52.388;13.390;2023-04-06T13:05:15;11.78;33.63
57709;SHT35;42558;52.388;13.390;2023-04-06T13:07:47;11.30;34.66
57709;SHT35;42558;52.388;13.390;2023-04-06T13:10:17;11.17;34.41
57709;SHT35;42558;52.388;13.390;2023-04-06T13:12:46;10.79;34.84
57709;SHT35;42558;52.388;13.390;2023-04-06T13:15:16;11.02;34.67
57709;SHT35;42558;52.388;13.390;2023-04-06T13:17:46;11.28;35.19
57709;SHT35;42558;52.388;13.390;2023-04-06T13:20:16;11.23;34.92
57709;SHT35;42558;52.388;13.390;2023-04-06T13:22:46;11.05;35.80
57709;SHT35;42558;52.388;13.390;2023-04-06T13:25:16;11.24;37.18
57709;SHT35;42558;52.388;13.390;2023-04-06T13:27:46;11.31;36.04
57709;SHT35;42558;52.388;13.390;2023-04-06T13:30:17;11.39;35.90
57709;SHT35;42558;52.388;13.390;2023-04-06T13:32:47;11.34;35.28
57709;SHT35;42558;52.388;13.390;2023-04-06T13:35:17;11.48;36.05
57709;SHT35;42558;52.388;13.390;2023-04-06T13:37:47;11.87;36.03
57709;SHT35;42558;52.388;13.390;2023-04-06T13:40:18;11.97;36.03
57709;SHT35;42558;52.388;13.390;2023-04-06T13:42:49;11.92;35.70
57709;SHT35;42558;52.388;13.390;2023-04-06T13:45:19;11.54;35.77
57709;SHT35;42558;52.388;13.390;2023-04-06T13:47:49;11.70;36.99
57709;SHT35;42558;52.388;13.390;2023-04-06T13:50:20;12.33;36.19
57709;SHT35;42558;52.388;13.390;2023-04-06T13:52:50;12.80;35.77
57709;SHT35;42558;52.388;13.390;2023-04-06T13:55:20;12.62;35.09
57709;SHT35;42558;52.388;13.390;2023-04-06T13:57:50;12.52;36.04
57709;SHT35;42558;52.388;13.390;2023-04-06T14:00:20;12.11;36.32
57709;SHT35;42558;52.388;13.390;2023-04-06T14:02:50;12.47;36.26
57709;SHT35;42558;52.388;13.390;2023-04-06T14:05:23;12.68;35.92
57709;SHT35;42558;52.388;13.390;2023-04-06T14:07:53;12.97;35.25
57709;SHT35;42558;52.388;13.390;2023-04-06T14:10:23;11.90;35.25
57709;SHT35;42558;52.388;13.390;2023-04-06T14:12:55;12.08;35.88
57709;SHT35;42558;52.388;13.390;2023-04-06T14:15:26;12.46;35.46
57709;SHT35;42558;52.388;13.390;2023-04-06T14:17:57;12.40;34.99
57709;SHT35;42558;52.388;13.390;2023-04-06T14:20:27;12.32;35.66
57709;SHT35;42558;52.388;13.390;2023-04-06T14:22:59;12.44;35.17
57709;SHT35;42558;52.388;13.390;2023-04-06T14:25:29;11.94;35.58
57709;SHT35;42558;52.388;13.390;2023-04-06T14:28:03;12.05;36.63
57709;SHT35;42558;52.388;13.390;2023-04-06T14:30:30;12.04;36.04
57709;SHT35;42558;52.388;13.390;2023-04-06T14:33:00;12.70;36.48
57709;SHT35;42558;52.388;13.390;2023-04-06T14:35:30;13.14;35.33
57709;SHT35;42558;52.388;13.390;2023-04-06T14:38:00;12.87;35.54
57709;SHT35;42558;52.388;13.390;2023-04-06T14:40:33;13.07;35.44
57709;SHT35;42558;52.388;13.390;2023-04-06T14:43:03;12.51;34.86
57709;SHT35;42558;52.388;13.390;2023-04-06T14:45:33;12.49;35.46
57709;SHT35;42558;52.388;13.390;2023-04-06T14:48:08;12.49;34.83
57709;SHT35;42558;52.388;13.390;2023-04-06T14:50:41;12.81;35.01
57709;SHT35;42558;52.388;13.390;2023-04-06T14:53:12;12.62;34.32
57709;SHT35;42558;52.388;13.390;2023-04-06T14:55:42;12.37;35.40
57709;SHT35;42558;52.388;13.390;2023-04-06T14:58:10;12.44;35.27
57709;SHT35;42558;52.388;13.390;2023-04-06T15:00:38;12.27;35.29
57709;SHT35;42558;52.388;13.390;2023-04-06T15:03:07;12.73;34.14
57709;SHT35;42558;52.388;13.390;2023-04-06T15:05:35;12.64;33.74
57709;SHT35;42558;52.388;13.390;2023-04-06T15:08:04;12.44;34.81
57709;SHT35;42558;52.388;13.390;2023-04-06T15:10:32;12.83;34.36
57709;SHT35;42558;52.388;13.390;2023-04-06T15:13:01;12.41;34.65
57709;SHT35;42558;52.388;13.390;2023-04-06T15:15:29;11.91;35.52
57709;SHT35;42558;52.388;13.390;2023-04-06T15:17:57;12.57;35.56
57709;SHT35;42558;52.388;13.390;2023-04-06T15:20:26;12.94;34.87
57709;SHT35;42558;52.388;13.390;2023-04-06T15:22:54;13.67;34.89
57709;SHT35;42558;52.388;13.390;2023-04-06T15:25:23;14.00;32.84
57709;SHT35;42558;52.388;13.390;2023-04-06T15:27:51;13.09;33.15
57709;SHT35;42558;52.388;13.390;2023-04-06T15:30:20;13.16;33.82
57709;SHT35;42558;52.388;13.390;2023-04-06T15:33:00;13.73;33.96
57709;SHT35;42558;52.388;13.390;2023-04-06T15:35:34;12.90;33.85
57709;SHT35;42558;52.388;13.390;2023-04-06T15:38:06;12.28;34.85
57709;SHT35;42558;52.388;13.390;2023-04-06T15:40:47;12.56;34.75
57709;SHT35;42558;52.388;13.390;2023-04-06T15:43:17;11.65;34.88
57709;SHT35;42558;52.388;13.390;2023-04-06T15:45:45;12.16;35.73
57709;SHT35;42558;52.388;13.390;2023-04-06T15:48:13;12.18;34.84